sensor_id;sensor_type;location;lat;lon;timestamp;P1;durP1;ratioP1;P2;durP2;ratioP2
38266;SDS011;24063;51.794;19.578;2022-07-09T00:00:11;4.62;;;4.62;;
38266;SDS011;24063;51.794;19.578;2022-07-09T00:01:33;4.54;;;4.54;;
38266;SDS011;24063;51.794;19.578;2022-07-09T00:02:35;4.44;;;4.44;;
38266;SDS011;24063;51.794;19.578;2022-07-09T00:03:38;4.89;;;4.89;;
38266;SDS011;24063;51.794;19.578;2022-07-09T00:04:40;4.25;;;4.25;;
38266;SDS011;24063;51.794;19.578;2022-07-09T00:05:41;4.74;;;4.74;;
38266;SDS011;24063;51.794;19.578;2022-07-09T00:06:43;4.66;;;4.66;;
38266;SDS011;24063;51.794;19.578;2022-07-09T00:07:45;4.70;;;4.70;;
38266;SDS011;24063;51.794;19.578;2022-07-09T00:08:46;4.10;;;4.10;;
38266;SDS011;24063;51.794;19.578;2022-07-09T00:09:48;4.58;;;4.58;;
38266;SDS011;24063;51.794;19.578;2022-07-09T00:10:50;4.44;;;4.44;;
38266;SDS011;24063;51.794;19.578;2022-07-09T00:11:52;4.22;;;4.22;;
38266;SDS011;24063;51.794;19.578;2022-07-09T00:12:54;4.29;;;4.29;;
38266;SDS011;24063;51.794;19.578;2022-07-09T00:13:55;4.39;;;4.39;;
38266;SDS011;24063;51.794;19.578;2022-07-09T00:14:57;4.92;;;4.92;;
38266;SDS011;24063;51.794;19.578;2022-07-09T00:15:59;4.58;;;4.58;;
38266;SDS011;24063;51.794;19.578;2022-07-09T00:17:01;4.52;;;4.52;;
38266;SDS011;24063;51.794;19.578;2022-07-09T00:18:02;4.44;;;4.44;;
38266;SDS011;24063;51.794;19.578;2022-07-09T00:19:05;4.61;;;4.61;;
38266;SDS011;24063;51.794;19.578;2022-07-09T00:20:07;4.57;;;4.57;;
38266;SDS011;24063;51.794;19.578;2022-07-09T00:21:09;4.38;;;4.38;;
38266;SDS011;24063;51.794;19.578;2022-07-09T00:22:11;4.21;;;4.21;;
38266;SDS011;24063;51.794;19.578;2022-07-09T00:23:12;4.70;;;4.70;;
38266;SDS011;24063;51.794;19.578;2022-07-09T00:24:14;4.53;;;4.53;;
38266;SDS011;24063;51.794;19.578;2022-07-09T00:25:16;3.97;;;3.97;;
38266;SDS011;24063;51.794;19.578;2022-07-09T00:26:18;4.25;;;4.25;;
38266;SDS011;24063;51.794;19.578;2022-07-09T00:27:20;4.38;;;4.38;;
38266;SDS011;24063;51.794;19.578;2022-07-09T00:28:22;4.27;;;4.27;;
38266;SDS011;24063;51.794;19.578;2022-07-09T00:29:23;4.05;;;4.05;;
38266;SDS011;24063;51.794;19.578;2022-07-09T00:30:25;3.98;;;3.98;;
38266;SDS011;24063;51.794;19.578;2022-07-09T00:31:28;4.28;;;4.28;;
38266;SDS011;24063;51.794;19.578;2022-07-09T00:32:29;4.62;;;4.62;;
38266;SDS011;24063;51.794;19.578;2022-07-09T00:33:31;4.47;;;4.47;;
38266;SDS011;24063;51.794;19.578;2022-07-09T00:34:33;4.47;;;4.47;;
38266;SDS011;24063;51.794;19.578;2022-07-09T00:35:35;4.12;;;4.12;;
38266;SDS011;24063;51.794;19.578;2022-07-09T00:36:37;4.16;;;4.16;;
38266;SDS011;24063;51.794;19.578;2022-07-09T00:37:39;4.18;;;4.18;;
38266;SDS011;24063;51.794;19.578;2022-07-09T00:38:40;4.09;;;4.09;;
38266;SDS011;24063;51.794;19.578;2022-07-09T00:39:42;4.50;;;4.50;;
38266;SDS011;24063;51.794;19.578;2022-07-09T00:40:44;4.38;;;4.38;;
38266;SDS011;24063;51.794;19.578;2022-07-09T00:41:45;4.89;;;4.89;;
38266;SDS011;24063;51.794;19.578;2022-07-09T00:42:47;4.53;;;4.53;;
38266;SDS011;24063;51.794;19.578;2022-07-09T00:43:49;4.41;;;4.41;;
38266;SDS011;24063;51.794;19.578;2022-07-09T00:44:52;3.84;;;3.84;;
38266;SDS011;24063;51.794;19.578;2022-07-09T00:45:53;3.92;;;3.92;;
38266;SDS011;24063;51.794;19.578;2022-07-09T00:46:55;4.37;;;4.37;;
38266;SDS011;24063;51.794;19.578;2022-07-09T00:47:58;4.01;;;4.01;;
38266;SDS011;24063;51.794;19.578;2022-07-09T00:48:59;3.76;;;3.76;;
38266;SDS011;24063;51.794;19.578;2022-07-09T00:50:05;4.03;;;4.03;;
38266;SDS011;24063;51.794;19.578;2022-07-09T00:51:08;3.97;;;3.97;;
38266;SDS011;24063;51.794;19.578;2022-07-09T00:52:13;3.84;;;3.84;;
38266;SDS011;24063;51.794;19.578;2022-07-09T00:53:17;4.76;;;4.76;;
38266;SDS011;24063;51.794;19.578;2022-07-09T00:54:21;4.23;;;4.23;;
38266;SDS011;24063;51.794;19.578;2022-07-09T00:55:25;4.42;;;4.42;;
38266;SDS011;24063;51.794;19.578;2022-07-09T00:56:28;4.44;;;4.44;;
38266;SDS011;24063;51.794;19.578;2022-07-09T00:57:31;4.02;;;4.02;;
38266;SDS011;24063;51.794;19.578;2022-07-09T00:58:34;3.69;;;3.69;;
38266;SDS011;24063;51.794;19.578;2022-07-09T00:59:38;4.01;;;4.01;;
38266;SDS011;24063;51.794;19.578;2022-07-09T01:00:40;4.03;;;4.03;;
38266;SDS011;24063;51.794;19.578;2022-07-09T01:01:45;4.14;;;4.14;;
38266;SDS011;24063;51.794;19.578;2022-07-09T01:02:47;4.11;;;4.11;;
38266;SDS011;24063;51.794;19.578;2022-07-09T01:03:50;4.10;;;4.10;;
38266;SDS011;24063;51.794;19.578;2022-07-09T01:04:52;3.92;;;3.92;;
38266;SDS011;24063;51.794;19.578;2022-07-09T01:05:54;3.73;;;3.73;;
38266;SDS011;24063;51.794;19.578;2022-07-09T01:06:57;4.14;;;4.14;;
38266;SDS011;24063;51.794;19.578;2022-07-09T01:07:59;4.14;;;4.14;;
38266;SDS011;24063;51.794;19.578;2022-07-09T01:09:02;3.88;;;3.88;;
38266;SDS011;24063;51.794;19.578;2022-07-09T01:10:04;4.27;;;4.27;;
38266;SDS011;24063;51.794;19.578;2022-07-09T01:11:06;4.19;;;4.19;;
38266;SDS011;24063;51.794;19.578;2022-07-09T01:12:08;4.15;;;4.15;;
38266;SDS011;24063;51.794;19.578;2022-07-09T01:13:10;4.13;;;4.13;;
38266;SDS011;24063;51.794;19.578;2022-07-09T01:14:13;4.04;;;4.04;;
38266;SDS011;24063;51.794;19.578;2022-07-09T01:15:15;4.13;;;4.13;;
38266;SDS011;24063;51.794;19.578;2022-07-09T01:16:16;4.29;;;4.29;;
38266;SDS011;24063;51.794;19.578;2022-07-09T01:17:18;4.64;;;4.64;;
38266;SDS011;24063;51.794;19.578;2022-07-09T01:18:20;4.30;;;4.30;;
38266;SDS011;24063;51.794;19.578;2022-07-09T01:19:22;4.79;;;4.79;;
38266;SDS011;24063;51.794;19.578;2022-07-09T01:20:24;4.04;;;4.04;;
38266;SDS011;24063;51.794;19.578;2022-07-09T01:21:27;4.18;;;4.18;;
38266;SDS011;24063;51.794;19.578;2022-07-09T01:22:29;4.05;;;4.05;;
38266;SDS011;24063;51.794;19.578;2022-07-09T01:23:31;4.23;;;4.23;;
38266;SDS011;24063;51.794;19.578;2022-07-09T01:24:33;4.15;;;4.15;;
38266;SDS011;24063;51.794;19.578;2022-07-09T01:25:42;3.85;;;3.85;;
38266;SDS011;24063;51.794;19.578;2022-07-09T01:26:47;4.37;;;4.37;;
38266;SDS011;24063;51.794;19.578;2022-07-09T01:27:49;3.91;;;3.91;;
38266;SDS011;24063;51.794;19.578;2022-07-09T01:28:51;4.12;;;4.12;;
38266;SDS011;24063;51.794;19.578;2022-07-09T01:29:53;3.95;;;3.95;;
38266;SDS011;24063;51.794;19.578;2022-07-09T01:30:55;3.88;;;3.88;;
38266;SDS011;24063;51.794;19.578;2022-07-09T01:31:57;4.34;;;4.34;;
38266;SDS011;24063;51.794;19.578;2022-07-09T01:32:59;4.30;;;4.30;;
38266;SDS011;24063;51.794;19.578;2022-07-09T01:34:01;4.38;;;4.38;;
38266;SDS011;24063;51.794;19.578;2022-07-09T01:35:03;4.43;;;4.43;;
38266;SDS011;24063;51.794;19.578;2022-07-09T01:36:06;4.18;;;4.18;;
38266;SDS011;24063;51.794;19.578;2022-07-09T01:37:08;3.76;;;3.76;;
38266;SDS011;24063;51.794;19.578;2022-07-09T01:38:10;3.99;;;3.99;;
38266;SDS011;24063;51.794;19.578;2022-07-09T01:39:12;3.82;;;3.82;;
38266;SDS011;24063;51.794;19.578;2022-07-09T01:40:14;3.80;;;3.80;;
38266;SDS011;24063;51.794;19.578;2022-07-09T01:41:16;3.54;;;3.54;;
38266;SDS011;24063;51.794;19.578;2022-07-09T01:42:18;3.27;;;3.27;;
38266;SDS011;24063;51.794;19.578;2022-07-09T01:43:20;3.65;;;3.65;;
38266;SDS011;24063;51.794;19.578;2022-07-09T01:44:22;3.81;;;3.81;;
38266;SDS011;24063;51.794;19.578;2022-07-09T01:45:23;3.61;;;3.61;;
38266;SDS011;24063;51.794;19.578;2022-07-09T01:46:25;3.77;;;3.77;;
38266;SDS011;24063;51.794;19.578;2022-07-09T01:47:27;3.93;;;3.93;;
38266;SDS011;24063;51.794;19.578;2022-07-09T01:48:29;3.84;;;3.84;;
38266;SDS011;24063;51.794;19.578;2022-07-09T01:49:32;3.83;;;3.83;;
38266;SDS011;24063;51.794;19.578;2022-07-09T01:50:33;3.82;;;3.82;;
38266;SDS011;24063;51.794;19.578;2022-07-09T01:51:35;3.94;;;3.94;;
38266;SDS011;24063;51.794;19.578;2022-07-09T01:52:37;3.79;;;3.79;;
38266;SDS011;24063;51.794;19.578;2022-07-09T01:53:39;3.87;;;3.87;;
38266;SDS011;24063;51.794;19.578;2022-07-09T01:54:43;3.88;;;3.88;;
38266;SDS011;24063;51.794;19.578;2022-07-09T01:55:45;3.77;;;3.77;;
38266;SDS011;24063;51.794;19.578;2022-07-09T01:56:47;3.39;;;3.39;;
38266;SDS011;24063;51.794;19.578;2022-07-09T01:57:49;3.73;;;3.73;;
38266;SDS011;24063;51.794;19.578;2022-07-09T01:58:50;3.40;;;3.40;;
38266;SDS011;24063;51.794;19.578;2022-07-09T01:59:52;3.71;;;3.71;;
38266;SDS011;24063;51.794;19.578;2022-07-09T02:00:55;3.62;;;3.62;;
38266;SDS011;24063;51.794;19.578;2022-07-09T02:01:56;3.95;;;3.95;;
38266;SDS011;24063;51.794;19.578;2022-07-09T02:02:58;3.30;;;3.30;;
38266;SDS011;24063;51.794;19.578;2022-07-09T02:04:00;3.81;;;3.81;;
38266;SDS011;24063;51.794;19.578;2022-07-09T02:05:02;3.89;;;3.89;;
38266;SDS011;24063;51.794;19.578;2022-07-09T02:06:05;3.82;;;3.82;;
38266;SDS011;24063;51.794;19.578;2022-07-09T02:07:06;4.03;;;4.03;;
38266;SDS011;24063;51.794;19.578;2022-07-09T02:08:08;3.71;;;3.71;;
38266;SDS011;24063;51.794;19.578;2022-07-09T02:09:10;3.91;;;3.91;;
38266;SDS011;24063;51.794;19.578;2022-07-09T02:10:11;3.65;;;3.65;;
38266;SDS011;24063;51.794;19.578;2022-07-09T02:11:14;3.72;;;3.72;;
38266;SDS011;24063;51.794;19.578;2022-07-09T02:12:16;3.59;;;3.59;;
38266;SDS011;24063;51.794;19.578;2022-07-09T02:13:18;3.97;;;3.97;;
38266;SDS011;24063;51.794;19.578;2022-07-09T02:14:20;3.41;;;3.41;;
38266;SDS011;24063;51.794;19.578;2022-07-09T02:15:22;3.51;;;3.51;;
38266;SDS011;24063;51.794;19.578;2022-07-09T02:16:24;3.70;;;3.70;;
38266;SDS011;24063;51.794;19.578;2022-07-09T02:17:26;3.63;;;3.63;;
38266;SDS011;24063;51.794;19.578;2022-07-09T02:18:28;3.72;;;3.72;;
38266;SDS011;24063;51.794;19.578;2022-07-09T02:19:30;4.17;;;4.17;;
38266;SDS011;24063;51.794;19.578;2022-07-09T02:20:32;3.38;;;3.38;;
38266;SDS011;24063;51.794;19.578;2022-07-09T02:21:34;3.65;;;3.65;;
38266;SDS011;24063;51.794;19.578;2022-07-09T02:22:36;3.18;;;3.18;;
38266;SDS011;24063;51.794;19.578;2022-07-09T02:23:37;3.80;;;3.80;;
38266;SDS011;24063;51.794;19.578;2022-07-09T02:24:39;4.25;;;4.25;;
38266;SDS011;24063;51.794;19.578;2022-07-09T02:25:41;3.36;;;3.36;;
38266;SDS011;24063;51.794;19.578;2022-07-09T02:26:43;3.57;;;3.57;;
38266;SDS011;24063;51.794;19.578;2022-07-09T02:27:44;3.49;;;3.49;;
38266;SDS011;24063;51.794;19.578;2022-07-09T02:28:46;3.58;;;3.58;;
38266;SDS011;24063;51.794;19.578;2022-07-09T02:29:48;3.79;;;3.79;;
38266;SDS011;24063;51.794;19.578;2022-07-09T02:30:49;4.06;;;4.06;;
38266;SDS011;24063;51.794;19.578;2022-07-09T02:31:52;3.66;;;3.66;;
38266;SDS011;24063;51.794;19.578;2022-07-09T02:32:56;3.67;;;3.67;;
38266;SDS011;24063;51.794;19.578;2022-07-09T02:33:58;3.50;;;3.50;;
38266;SDS011;24063;51.794;19.578;2022-07-09T02:35:00;3.79;;;3.79;;
38266;SDS011;24063;51.794;19.578;2022-07-09T02:36:01;3.59;;;3.59;;
38266;SDS011;24063;51.794;19.578;2022-07-09T02:37:06;3.59;;;3.59;;
38266;SDS011;24063;51.794;19.578;2022-07-09T02:38:09;3.57;;;3.57;;
38266;SDS011;24063;51.794;19.578;2022-07-09T02:39:11;3.41;;;3.41;;
38266;SDS011;24063;51.794;19.578;2022-07-09T02:40:12;3.63;;;3.63;;
38266;SDS011;24063;51.794;19.578;2022-07-09T02:41:16;3.49;;;3.49;;
38266;SDS011;24063;51.794;19.578;2022-07-09T02:42:18;3.89;;;3.89;;
38266;SDS011;24063;51.794;19.578;2022-07-09T02:43:19;3.68;;;3.68;;
38266;SDS011;24063;51.794;19.578;2022-07-09T02:44:21;3.70;;;3.70;;
38266;SDS011;24063;51.794;19.578;2022-07-09T02:45:23;3.47;;;3.47;;
38266;SDS011;24063;51.794;19.578;2022-07-09T02:46:25;4.00;;;4.00;;
38266;SDS011;24063;51.794;19.578;2022-07-09T02:47:27;3.78;;;3.78;;
38266;SDS011;24063;51.794;19.578;2022-07-09T02:48:29;3.13;;;3.13;;
38266;SDS011;24063;51.794;19.578;2022-07-09T02:49:31;3.74;;;3.74;;
38266;SDS011;24063;51.794;19.578;2022-07-09T02:50:32;3.33;;;3.33;;
38266;SDS011;24063;51.794;19.578;2022-07-09T02:51:34;3.74;;;3.74;;
38266;SDS011;24063;51.794;19.578;2022-07-09T02:52:36;3.71;;;3.71;;
38266;SDS011;24063;51.794;19.578;2022-07-09T02:53:38;3.72;;;3.72;;
38266;SDS011;24063;51.794;19.578;2022-07-09T02:54:39;3.67;;;3.67;;
38266;SDS011;24063;51.794;19.578;2022-07-09T02:55:41;3.74;;;3.74;;
38266;SDS011;24063;51.794;19.578;2022-07-09T02:56:43;3.48;;;3.48;;
38266;SDS011;24063;51.794;19.578;2022-07-09T02:57:45;3.63;;;3.63;;
38266;SDS011;24063;51.794;19.578;2022-07-09T02:58:47;3.55;;;3.55;;
38266;SDS011;24063;51.794;19.578;2022-07-09T02:59:48;3.87;;;3.87;;
38266;SDS011;24063;51.794;19.578;2022-07-09T03:00:50;3.54;;;3.54;;
38266;SDS011;24063;51.794;19.578;2022-07-09T03:01:52;3.92;;;3.92;;
38266;SDS011;24063;51.794;19.578;2022-07-09T03:02:54;3.58;;;3.58;;
38266;SDS011;24063;51.794;19.578;2022-07-09T03:03:56;3.75;;;3.75;;
38266;SDS011;24063;51.794;19.578;2022-07-09T03:04:58;3.72;;;3.72;;
38266;SDS011;24063;51.794;19.578;2022-07-09T03:05:59;3.64;;;3.64;;
38266;SDS011;24063;51.794;19.578;2022-07-09T03:07:01;4.02;;;4.02;;
38266;SDS011;24063;51.794;19.578;2022-07-09T03:08:04;3.68;;;3.68;;
38266;SDS011;24063;51.794;19.578;2022-07-09T03:09:06;3.99;;;3.99;;
38266;SDS011;24063;51.794;19.578;2022-07-09T03:10:08;3.59;;;3.59;;
38266;SDS011;24063;51.794;19.578;2022-07-09T03:11:10;3.39;;;3.39;;
38266;SDS011;24063;51.794;19.578;2022-07-09T03:12:12;3.44;;;3.44;;
38266;SDS011;24063;51.794;19.578;2022-07-09T03:13:14;3.62;;;3.62;;
38266;SDS011;24063;51.794;19.578;2022-07-09T03:14:16;3.76;;;3.76;;
38266;SDS011;24063;51.794;19.578;2022-07-09T03:15:18;3.57;;;3.57;;
38266;SDS011;24063;51.794;19.578;2022-07-09T03:16:20;3.23;;;3.23;;
38266;SDS011;24063;51.794;19.578;2022-07-09T03:17:22;3.38;;;3.38;;
38266;SDS011;24063;51.794;19.578;2022-07-09T03:18:23;3.20;;;3.20;;
38266;SDS011;24063;51.794;19.578;2022-07-09T03:19:25;3.68;;;3.68;;
38266;SDS011;24063;51.794;19.578;2022-07-09T03:20:27;3.36;;;3.36;;
38266;SDS011;24063;51.794;19.578;2022-07-09T03:21:29;3.66;;;3.66;;
38266;SDS011;24063;51.794;19.578;2022-07-09T03:22:31;3.40;;;3.40;;
38266;SDS011;24063;51.794;19.578;2022-07-09T03:23:33;3.04;;;3.04;;
38266;SDS011;24063;51.794;19.578;2022-07-09T03:24:34;3.62;;;3.62;;
38266;SDS011;24063;51.794;19.578;2022-07-09T03:25:36;3.30;;;3.30;;
38266;SDS011;24063;51.794;19.578;2022-07-09T03:26:38;3.29;;;3.29;;
38266;SDS011;24063;51.794;19.578;2022-07-09T03:27:40;3.40;;;3.40;;
38266;SDS011;24063;51.794;19.578;2022-07-09T03:28:41;3.46;;;3.46;;
38266;SDS011;24063;51.794;19.578;2022-07-09T03:29:43;3.58;;;3.58;;
38266;SDS011;24063;51.794;19.578;2022-07-09T03:30:45;3.25;;;3.25;;
38266;SDS011;24063;51.794;19.578;2022-07-09T03:31:47;3.17;;;3.17;;
38266;SDS011;24063;51.794;19.578;2022-07-09T03:32:49;3.44;;;3.44;;
38266;SDS011;24063;51.794;19.578;2022-07-09T03:33:52;3.47;;;3.47;;
38266;SDS011;24063;51.794;19.578;2022-07-09T03:34:56;3.25;;;3.25;;
38266;SDS011;24063;51.794;19.578;2022-07-09T03:35:57;3.53;;;3.53;;
38266;SDS011;24063;51.794;19.578;2022-07-09T03:36:59;3.36;;;3.36;;
38266;SDS011;24063;51.794;19.578;2022-07-09T03:38:01;3.75;;;3.75;;
38266;SDS011;24063;51.794;19.578;2022-07-09T03:39:03;3.99;;;3.99;;
38266;SDS011;24063;51.794;19.578;2022-07-09T03:40:05;3.66;;;3.66;;
38266;SDS011;24063;51.794;19.578;2022-07-09T03:41:07;3.80;;;3.80;;
38266;SDS011;24063;51.794;19.578;2022-07-09T03:42:09;3.89;;;3.89;;
38266;SDS011;24063;51.794;19.578;2022-07-09T03:43:11;3.82;;;3.82;;
38266;SDS011;24063;51.794;19.578;2022-07-09T03:44:13;3.96;;;3.96;;
38266;SDS011;24063;51.794;19.578;2022-07-09T03:45:14;4.03;;;4.03;;
38266;SDS011;24063;51.794;19.578;2022-07-09T03:46:16;4.26;;;4.26;;
38266;SDS011;24063;51.794;19.578;2022-07-09T03:47:18;4.15;;;4.15;;
38266;SDS011;24063;51.794;19.578;2022-07-09T03:48:20;4.31;;;4.31;;
38266;SDS011;24063;51.794;19.578;2022-07-09T03:49:22;4.06;;;4.06;;
38266;SDS011;24063;51.794;19.578;2022-07-09T03:50:24;4.48;;;4.48;;
38266;SDS011;24063;51.794;19.578;2022-07-09T03:51:26;4.62;;;4.62;;
38266;SDS011;24063;51.794;19.578;2022-07-09T03:52:27;4.27;;;4.27;;
38266;SDS011;24063;51.794;19.578;2022-07-09T03:53:29;4.29;;;4.29;;
38266;SDS011;24063;51.794;19.578;2022-07-09T03:54:31;4.92;;;4.92;;
38266;SDS011;24063;51.794;19.578;2022-07-09T03:55:33;4.52;;;4.52;;
38266;SDS011;24063;51.794;19.578;2022-07-09T03:56:35;6.14;;;6.14;;
38266;SDS011;24063;51.794;19.578;2022-07-09T03:57:37;5.83;;;5.83;;
38266;SDS011;24063;51.794;19.578;2022-07-09T03:58:39;7.09;;;7.06;;
38266;SDS011;24063;51.794;19.578;2022-07-09T03:59:41;7.17;;;7.01;;
38266;SDS011;24063;51.794;19.578;2022-07-09T04:00:43;7.23;;;6.98;;
38266;SDS011;24063;51.794;19.578;2022-07-09T04:01:44;7.23;;;7.01;;
38266;SDS011;24063;51.794;19.578;2022-07-09T04:02:46;7.16;;;6.90;;
38266;SDS011;24063;51.794;19.578;2022-07-09T04:03:48;6.73;;;6.57;;
38266;SDS011;24063;51.794;19.578;2022-07-09T04:04:50;6.71;;;6.61;;
38266;SDS011;24063;51.794;19.578;2022-07-09T04:05:52;7.15;;;7.06;;
38266;SDS011;24063;51.794;19.578;2022-07-09T04:06:53;7.42;;;7.38;;
38266;SDS011;24063;51.794;19.578;2022-07-09T04:07:56;7.15;;;7.15;;
38266;SDS011;24063;51.794;19.578;2022-07-09T04:08:59;7.34;;;7.34;;
38266;SDS011;24063;51.794;19.578;2022-07-09T04:10:05;7.38;;;7.37;;
38266;SDS011;24063;51.794;19.578;2022-07-09T04:11:08;6.50;;;6.44;;
38266;SDS011;24063;51.794;19.578;2022-07-09T04:12:10;6.68;;;6.61;;
38266;SDS011;24063;51.794;19.578;2022-07-09T04:13:12;6.18;;;6.17;;
38266;SDS011;24063;51.794;19.578;2022-07-09T04:14:15;6.09;;;6.08;;
38266;SDS011;24063;51.794;19.578;2022-07-09T04:15:17;6.30;;;6.30;;
38266;SDS011;24063;51.794;19.578;2022-07-09T04:16:19;6.20;;;6.15;;
38266;SDS011;24063;51.794;19.578;2022-07-09T04:17:20;5.63;;;5.63;;
38266;SDS011;24063;51.794;19.578;2022-07-09T04:18:22;5.65;;;5.63;;
38266;SDS011;24063;51.794;19.578;2022-07-09T04:19:24;5.19;;;5.12;;
38266;SDS011;24063;51.794;19.578;2022-07-09T04:20:26;4.90;;;4.86;;
38266;SDS011;24063;51.794;19.578;2022-07-09T04:21:28;4.82;;;4.81;;
38266;SDS011;24063;51.794;19.578;2022-07-09T04:22:30;5.28;;;5.28;;
38266;SDS011;24063;51.794;19.578;2022-07-09T04:23:32;4.82;;;4.82;;
38266;SDS011;24063;51.794;19.578;2022-07-09T04:24:34;5.03;;;5.03;;
38266;SDS011;24063;51.794;19.578;2022-07-09T04:25:35;4.46;;;4.46;;
38266;SDS011;24063;51.794;19.578;2022-07-09T04:26:37;5.22;;;5.22;;
38266;SDS011;24063;51.794;19.578;2022-07-09T04:27:39;4.45;;;4.45;;
38266;SDS011;24063;51.794;19.578;2022-07-09T04:28:41;4.41;;;4.41;;
38266;SDS011;24063;51.794;19.578;2022-07-09T04:29:42;4.84;;;4.84;;
38266;SDS011;24063;51.794;19.578;2022-07-09T04:30:47;4.82;;;4.82;;
38266;SDS011;24063;51.794;19.578;2022-07-09T04:31:49;4.98;;;4.98;;
38266;SDS011;24063;51.794;19.578;2022-07-09T04:32:51;5.00;;;5.00;;
38266;SDS011;24063;51.794;19.578;2022-07-09T04:33:53;4.88;;;4.88;;
38266;SDS011;24063;51.794;19.578;2022-07-09T04:34:54;5.14;;;5.14;;
38266;SDS011;24063;51.794;19.578;2022-07-09T04:35:57;4.93;;;4.93;;
38266;SDS011;24063;51.794;19.578;2022-07-09T04:36:59;4.62;;;4.62;;
38266;SDS011;24063;51.794;19.578;2022-07-09T04:38:00;4.38;;;4.38;;
38266;SDS011;24063;51.794;19.578;2022-07-09T04:39:03;4.35;;;4.35;;
38266;SDS011;24063;51.794;19.578;2022-07-09T04:40:05;3.96;;;3.96;;
38266;SDS011;24063;51.794;19.578;2022-07-09T04:41:07;4.33;;;4.33;;
38266;SDS011;24063;51.794;19.578;2022-07-09T04:42:09;4.08;;;4.08;;
38266;SDS011;24063;51.794;19.578;2022-07-09T04:43:14;3.87;;;3.87;;
38266;SDS011;24063;51.794;19.578;2022-07-09T04:44:16;4.56;;;4.56;;
38266;SDS011;24063;51.794;19.578;2022-07-09T04:45:18;4.66;;;4.66;;
38266;SDS011;24063;51.794;19.578;2022-07-09T04:46:20;3.96;;;3.96;;
38266;SDS011;24063;51.794;19.578;2022-07-09T04:47:26;4.15;;;4.15;;
38266;SDS011;24063;51.794;19.578;2022-07-09T04:48:28;4.14;;;4.14;;
38266;SDS011;24063;51.794;19.578;2022-07-09T04:49:30;4.63;;;4.63;;
38266;SDS011;24063;51.794;19.578;2022-07-09T04:50:38;4.29;;;4.29;;
38266;SDS011;24063;51.794;19.578;2022-07-09T04:51:40;4.36;;;4.36;;
38266;SDS011;24063;51.794;19.578;2022-07-09T04:52:41;3.95;;;3.95;;
38266;SDS011;24063;51.794;19.578;2022-07-09T04:53:44;3.93;;;3.93;;
38266;SDS011;24063;51.794;19.578;2022-07-09T04:54:45;3.63;;;3.63;;
38266;SDS011;24063;51.794;19.578;2022-07-09T04:55:48;3.63;;;3.63;;
38266;SDS011;24063;51.794;19.578;2022-07-09T04:56:50;3.67;;;3.67;;
38266;SDS011;24063;51.794;19.578;2022-07-09T04:57:51;3.77;;;3.77;;
38266;SDS011;24063;51.794;19.578;2022-07-09T04:58:53;3.82;;;3.80;;
38266;SDS011;24063;51.794;19.578;2022-07-09T04:59:58;4.07;;;4.07;;
38266;SDS011;24063;51.794;19.578;2022-07-09T05:01:01;3.50;;;3.50;;
38266;SDS011;24063;51.794;19.578;2022-07-09T05:02:03;3.10;;;3.10;;
38266;SDS011;24063;51.794;19.578;2022-07-09T05:03:05;3.04;;;3.04;;
38266;SDS011;24063;51.794;19.578;2022-07-09T05:04:07;3.23;;;3.23;;
38266;SDS011;24063;51.794;19.578;2022-07-09T05:05:10;3.20;;;3.20;;
38266;SDS011;24063;51.794;19.578;2022-07-09T05:06:13;2.80;;;2.80;;
38266;SDS011;24063;51.794;19.578;2022-07-09T05:07:16;2.97;;;2.97;;
38266;SDS011;24063;51.794;19.578;2022-07-09T05:08:18;2.75;;;2.75;;
38266;SDS011;24063;51.794;19.578;2022-07-09T05:09:20;2.86;;;2.86;;
38266;SDS011;24063;51.794;19.578;2022-07-09T05:10:21;2.72;;;2.72;;
38266;SDS011;24063;51.794;19.578;2022-07-09T05:11:23;2.44;;;2.44;;
38266;SDS011;24063;51.794;19.578;2022-07-09T05:12:25;2.64;;;2.64;;
38266;SDS011;24063;51.794;19.578;2022-07-09T05:13:27;2.59;;;2.59;;
38266;SDS011;24063;51.794;19.578;2022-07-09T05:14:29;2.59;;;2.59;;
38266;SDS011;24063;51.794;19.578;2022-07-09T05:15:30;2.39;;;2.39;;
38266;SDS011;24063;51.794;19.578;2022-07-09T05:16:34;2.60;;;2.60;;
38266;SDS011;24063;51.794;19.578;2022-07-09T05:17:36;2.56;;;2.56;;
38266;SDS011;24063;51.794;19.578;2022-07-09T05:18:39;2.59;;;2.59;;
38266;SDS011;24063;51.794;19.578;2022-07-09T05:19:40;2.52;;;2.52;;
38266;SDS011;24063;51.794;19.578;2022-07-09T05:20:42;2.81;;;2.81;;
38266;SDS011;24063;51.794;19.578;2022-07-09T05:21:44;2.68;;;2.68;;
38266;SDS011;24063;51.794;19.578;2022-07-09T05:22:46;2.70;;;2.70;;
38266;SDS011;24063;51.794;19.578;2022-07-09T05:23:47;2.69;;;2.69;;
38266;SDS011;24063;51.794;19.578;2022-07-09T05:24:49;2.64;;;2.64;;
38266;SDS011;24063;51.794;19.578;2022-07-09T05:25:51;2.77;;;2.77;;
38266;SDS011;24063;51.794;19.578;2022-07-09T05:26:53;2.38;;;2.38;;
38266;SDS011;24063;51.794;19.578;2022-07-09T05:27:54;2.62;;;2.62;;
38266;SDS011;24063;51.794;19.578;2022-07-09T05:28:56;2.24;;;2.24;;
38266;SDS011;24063;51.794;19.578;2022-07-09T05:29:58;2.42;;;2.42;;
38266;SDS011;24063;51.794;19.578;2022-07-09T05:31:00;2.51;;;2.51;;
38266;SDS011;24063;51.794;19.578;2022-07-09T05:32:22;2.61;;;2.61;;
38266;SDS011;24063;51.794;19.578;2022-07-09T05:33:24;2.79;;;2.79;;
38266;SDS011;24063;51.794;19.578;2022-07-09T05:34:26;2.69;;;2.69;;
38266;SDS011;24063;51.794;19.578;2022-07-09T05:35:27;2.63;;;2.63;;
38266;SDS011;24063;51.794;19.578;2022-07-09T05:36:29;2.73;;;2.73;;
38266;SDS011;24063;51.794;19.578;2022-07-09T05:37:31;2.63;;;2.63;;
38266;SDS011;24063;51.794;19.578;2022-07-09T05:38:33;2.67;;;2.67;;
38266;SDS011;24063;51.794;19.578;2022-07-09T05:39:35;2.73;;;2.73;;
38266;SDS011;24063;51.794;19.578;2022-07-09T05:40:37;2.38;;;2.38;;
38266;SDS011;24063;51.794;19.578;2022-07-09T05:41:38;2.68;;;2.68;;
38266;SDS011;24063;51.794;19.578;2022-07-09T05:42:40;2.58;;;2.58;;
38266;SDS011;24063;51.794;19.578;2022-07-09T05:43:42;2.48;;;2.48;;
38266;SDS011;24063;51.794;19.578;2022-07-09T05:44:43;2.54;;;2.54;;
38266;SDS011;24063;51.794;19.578;2022-07-09T05:45:45;2.97;;;2.97;;
38266;SDS011;24063;51.794;19.578;2022-07-09T05:46:47;2.85;;;2.85;;
38266;SDS011;24063;51.794;19.578;2022-07-09T05:47:49;2.74;;;2.74;;
38266;SDS011;24063;51.794;19.578;2022-07-09T05:48:51;2.79;;;2.79;;
38266;SDS011;24063;51.794;19.578;2022-07-09T05:49:53;3.06;;;3.06;;
38266;SDS011;24063;51.794;19.578;2022-07-09T05:50:54;2.85;;;2.85;;
38266;SDS011;24063;51.794;19.578;2022-07-09T05:51:56;2.90;;;2.90;;
38266;SDS011;24063;51.794;19.578;2022-07-09T05:52:58;2.80;;;2.80;;
38266;SDS011;24063;51.794;19.578;2022-07-09T05:54:00;2.91;;;2.91;;
38266;SDS011;24063;51.794;19.578;2022-07-09T05:55:02;2.79;;;2.79;;
38266;SDS011;24063;51.794;19.578;2022-07-09T05:56:08;2.95;;;2.95;;
38266;SDS011;24063;51.794;19.578;2022-07-09T05:57:11;2.76;;;2.76;;
38266;SDS011;24063;51.794;19.578;2022-07-09T05:58:12;2.70;;;2.70;;
38266;SDS011;24063;51.794;19.578;2022-07-09T05:59:14;2.33;;;2.33;;
38266;SDS011;24063;51.794;19.578;2022-07-09T06:00:16;2.58;;;2.58;;
38266;SDS011;24063;51.794;19.578;2022-07-09T06:01:18;2.35;;;2.35;;
38266;SDS011;24063;51.794;19.578;2022-07-09T06:02:27;2.51;;;2.51;;
38266;SDS011;24063;51.794;19.578;2022-07-09T06:03:28;2.65;;;2.65;;
38266;SDS011;24063;51.794;19.578;2022-07-09T06:04:30;2.81;;;2.81;;
38266;SDS011;24063;51.794;19.578;2022-07-09T06:05:32;2.84;;;2.84;;
38266;SDS011;24063;51.794;19.578;2022-07-09T06:06:34;2.46;;;2.46;;
38266;SDS011;24063;51.794;19.578;2022-07-09T06:07:37;2.68;;;2.68;;
38266;SDS011;24063;51.794;19.578;2022-07-09T06:08:39;2.53;;;2.53;;